sensor_id;sensor_type;location;lat;lon;timestamp;pressure;altitude;pressure_sealevel;temperature;humidity
82416;BME280;72058;47.782;10.618;2023-09-07T00:01:24;93806.34;;;15.87;68.72
82416;BME280;72058;47.782;10.618;2023-09-07T00:03:50;93801.19;;;15.98;67.96
82416;BME280;72058;47.782;10.618;2023-09-07T00:06:15;93803.59;;;15.87;68.35
82416;BME280;72058;47.782;10.618;2023-09-07T00:08:40;93808.38;;;15.90;68.43
82416;BME280;72058;47.782;10.618;2023-09-07T00:11:06;93805.56;;;15.87;68.36
82416;BME280;72058;47.782;10.618;2023-09-07T00:13:33;93796.19;;;15.76;68.67
82416;BME280;72058;47.782;10.618;2023-09-07T00:15:59;93804.41;;;15.76;68.44
82416;BME280;72058;47.782;10.618;2023-09-07T00:18:28;93803.03;;;15.70;68.45
82416;BME280;72058;47.782;10.618;2023-09-07T00:20:54;93805.75;;;15.82;67.69
82416;BME280;72058;47.782;10.618;2023-09-07T00:23:20;93806.69;;;15.74;67.81
82416;BME280;72058;47.782;10.618;2023-09-07T00:25:46;93812.06;;;15.58;68.42
82416;BME280;72058;47.782;10.618;2023-09-07T00:28:11;93807.16;;;15.76;67.84
82416;BME280;72058;47.782;10.618;2023-09-07T00:30:37;93804.88;;;15.78;67.39
82416;BME280;72058;47.782;10.618;2023-09-07T00:33:02;93804.22;;;15.57;68.29
82416;BME280;72058;47.782;10.618;2023-09-07T00:35:28;93801.97;;;15.50;68.35
82416;BME280;72058;47.782;10.618;2023-09-07T00:37:53;93801.88;;;15.46;68.74
82416;BME280;72058;47.782;10.618;2023-09-07T00:40:19;93801.66;;;15.39;68.94
82416;BME280;72058;47.782;10.618;2023-09-07T00:42:45;93809.84;;;15.27;69.00
82416;BME280;72058;47.782;10.618;2023-09-07T00:45:10;93802.69;;;15.47;68.60
82416;BME280;72058;47.782;10.618;2023-09-07T00:47:36;93808.44;;;14.97;70.30
82416;BME280;72058;47.782;10.618;2023-09-07T00:50:03;93807.06;;;15.15;70.51
82416;BME280;72058;47.782;10.618;2023-09-07T00:52:29;93806.78;;;15.29;69.71
82416;BME280;72058;47.782;10.618;2023-09-07T00:54:55;93810.03;;;14.98;70.81
82416;BME280;72058;47.782;10.618;2023-09-07T00:57:21;93809.28;;;14.76;71.75
82416;BME280;72058;47.782;10.618;2023-09-07T00:59:46;93810.22;;;14.80;71.82
82416;BME280;72058;47.782;10.618;2023-09-07T01:02:11;93813.31;;;14.91;70.77
82416;BME280;72058;47.782;10.618;2023-09-07T01:04:37;93812.88;;;15.01;69.71
82416;BME280;72058;47.782;10.618;2023-09-07T01:07:07;93809.81;;;15.03;69.21
82416;BME280;72058;47.782;10.618;2023-09-07T01:09:36;93803.53;;;15.02;69.49
82416;BME280;72058;47.782;10.618;2023-09-07T01:12:04;93804.44;;;15.06;69.17
82416;BME280;72058;47.782;10.618;2023-09-07T01:14:30;93799.78;;;15.19;68.88
82416;BME280;72058;47.782;10.618;2023-09-07T01:16:56;93803.75;;;15.09;69.30
82416;BME280;72058;47.782;10.618;2023-09-07T01:19:21;93801.34;;;15.08;69.54
82416;BME280;72058;47.782;10.618;2023-09-07T01:21:47;93793.38;;;15.03;69.61
82416;BME280;72058;47.782;10.618;2023-09-07T01:24:14;93799.19;;;15.01;69.38
82416;BME280;72058;47.782;10.618;2023-09-07T01:26:40;93790.38;;;14.96;69.74
82416;BME280;72058;47.782;10.618;2023-09-07T01:29:06;93795.25;;;14.90;70.12
82416;BME280;72058;47.782;10.618;2023-09-07T01:31:36;93796.66;;;14.96;69.90
82416;BME280;72058;47.782;10.618;2023-09-07T01:34:01;93797.13;;;14.98;69.33
82416;BME280;72058;47.782;10.618;2023-09-07T01:36:27;93798.94;;;14.94;69.62
82416;BME280;72058;47.782;10.618;2023-09-07T01:38:52;93794.03;;;15.00;69.88
82416;BME280;72058;47.782;10.618;2023-09-07T01:41:18;93791.06;;;14.93;69.99
82416;BME280;72058;47.782;10.618;2023-09-07T01:43:43;93797.34;;;14.93;70.10
82416;BME280;72058;47.782;10.618;2023-09-07T01:46:08;93788.47;;;15.08;69.25
82416;BME280;72058;47.782;10.618;2023-09-07T01:48:34;93793.94;;;14.96;69.73
82416;BME280;72058;47.782;10.618;2023-09-07T01:51:00;93779.72;;;14.82;69.80
82416;BME280;72058;47.782;10.618;2023-09-07T01:53:25;93781.88;;;14.76;69.87
82416;BME280;72058;47.782;10.618;2023-09-07T01:55:54;93786.59;;;14.88;69.13
82416;BME280;72058;47.782;10.618;2023-09-07T01:58:19;93782.59;;;14.86;69.28
82416;BME280;72058;47.782;10.618;2023-09-07T02:00:45;93775.94;;;14.74;70.03
82416;BME280;72058;47.782;10.618;2023-09-07T02:03:10;93775.50;;;14.72;70.08
82416;BME280;72058;47.782;10.618;2023-09-07T02:05:35;93778.25;;;14.72;70.11
82416;BME280;72058;47.782;10.618;2023-09-07T02:08:01;93771.50;;;14.82;70.04
82416;BME280;72058;47.782;10.618;2023-09-07T02:10:26;93779.63;;;14.91;69.52
82416;BME280;72058;47.782;10.618;2023-09-07T02:12:51;93776.78;;;14.87;69.67
82416;BME280;72058;47.782;10.618;2023-09-07T02:15:17;93780.28;;;14.75;70.04
82416;BME280;72058;47.782;10.618;2023-09-07T02:17:45;93775.91;;;14.62;69.77
82416;BME280;72058;47.782;10.618;2023-09-07T02:20:11;93768.84;;;14.61;69.93
82416;BME280;72058;47.782;10.618;2023-09-07T02:22:38;93775.44;;;14.60;69.59
82416;BME280;72058;47.782;10.618;2023-09-07T02:25:04;93776.59;;;14.59;69.57
82416;BME280;72058;47.782;10.618;2023-09-07T02:27:31;93773.59;;;14.52;69.96
82416;BME280;72058;47.782;10.618;2023-09-07T02:29:57;93777.38;;;14.48;69.95
82416;BME280;72058;47.782;10.618;2023-09-07T02:32:22;93774.72;;;14.51;69.68
82416;BME280;72058;47.782;10.618;2023-09-07T02:34:47;93773.28;;;14.54;69.53
82416;BME280;72058;47.782;10.618;2023-09-07T02:37:13;93769.41;;;14.55;69.15
82416;BME280;72058;47.782;10.618;2023-09-07T02:39:41;93774.16;;;14.46;69.24
82416;BME280;72058;47.782;10.618;2023-09-07T02:42:06;93778.34;;;14.43;69.51
82416;BME280;72058;47.782;10.618;2023-09-07T02:44:31;93779.19;;;14.35;68.94
82416;BME280;72058;47.782;10.618;2023-09-07T02:46:57;93782.75;;;14.35;69.46
82416;BME280;72058;47.782;10.618;2023-09-07T02:49:22;93783.41;;;14.32;69.72
82416;BME280;72058;47.782;10.618;2023-09-07T02:51:47;93790.63;;;14.37;69.88
82416;BME280;72058;47.782;10.618;2023-09-07T02:54:13;93785.16;;;14.37;69.58
82416;BME280;72058;47.782;10.618;2023-09-07T02:56:38;93786.34;;;14.27;70.42
82416;BME280;72058;47.782;10.618;2023-09-07T02:59:04;93780.41;;;14.25;70.73
82416;BME280;72058;47.782;10.618;2023-09-07T03:01:30;93775.16;;;14.20;71.06
82416;BME280;72058;47.782;10.618;2023-09-07T03:03:55;93778.75;;;14.12;70.96
82416;BME280;72058;47.782;10.618;2023-09-07T03:06:20;93773.06;;;14.17;70.53
82416;BME280;72058;47.782;10.618;2023-09-07T03:08:46;93775.69;;;14.14;71.09
82416;BME280;72058;47.782;10.618;2023-09-07T03:11:11;93777.41;;;14.18;70.93
82416;BME280;72058;47.782;10.618;2023-09-07T03:13:37;93783.44;;;14.12;70.96
82416;BME280;72058;47.782;10.618;2023-09-07T03:16:04;93774.91;;;14.13;70.97
82416;BME280;72058;47.782;10.618;2023-09-07T03:18:30;93777.81;;;14.08;71.35
82416;BME280;72058;47.782;10.618;2023-09-07T03:20:59;93779.31;;;14.05;71.08
82416;BME280;72058;47.782;10.618;2023-09-07T03:23:25;93779.47;;;14.00;71.23
82416;BME280;72058;47.782;10.618;2023-09-07T03:25:50;93774.34;;;13.99;71.28
82416;BME280;72058;47.782;10.618;2023-09-07T03:28:16;93779.69;;;13.95;71.29
82416;BME280;72058;47.782;10.618;2023-09-07T03:30:41;93780.63;;;13.99;70.98
82416;BME280;72058;47.782;10.618;2023-09-07T03:33:07;93782.91;;;13.97;70.89
82416;BME280;72058;47.782;10.618;2023-09-07T03:35:32;93778.69;;;14.00;71.26
82416;BME280;72058;47.782;10.618;2023-09-07T03:37:58;93774.00;;;14.00;70.92
82416;BME280;72058;47.782;10.618;2023-09-07T03:40:23;93773.06;;;14.17;70.41
82416;BME280;72058;47.782;10.618;2023-09-07T03:42:49;93785.81;;;14.34;69.69
82416;BME280;72058;47.782;10.618;2023-09-07T03:45:15;93770.00;;;14.39;69.59
82416;BME280;72058;47.782;10.618;2023-09-07T03:47:41;93776.47;;;14.35;69.97
82416;BME280;72058;47.782;10.618;2023-09-07T03:50:07;93777.88;;;14.41;69.48
82416;BME280;72058;47.782;10.618;2023-09-07T03:52:32;93775.41;;;14.27;70.16
82416;BME280;72058;47.782;10.618;2023-09-07T03:55:00;93778.22;;;14.19;70.66
82416;BME280;72058;47.782;10.618;2023-09-07T03:57:26;93780.16;;;14.18;70.18
82416;BME280;72058;47.782;10.618;2023-09-07T03:59:52;93783.22;;;14.17;69.95
82416;BME280;72058;47.782;10.618;2023-09-07T04:02:17;93783.09;;;14.13;70.18
82416;BME280;72058;47.782;10.618;2023-09-07T04:04:43;93778.63;;;14.29;69.51
82416;BME280;72058;47.782;10.618;2023-09-07T04:07:12;93783.41;;;14.32;69.10
82416;BME280;72058;47.782;10.618;2023-09-07T04:09:37;93786.34;;;14.48;68.77
82416;BME280;72058;47.782;10.618;2023-09-07T04:12:03;93789.81;;;14.36;69.01
82416;BME280;72058;47.782;10.618;2023-09-07T04:14:28;93785.84;;;14.13;69.93
82416;BME280;72058;47.782;10.618;2023-09-07T04:16:55;93784.78;;;14.05;70.15
82416;BME280;72058;47.782;10.618;2023-09-07T04:19:20;93788.03;;;13.99;70.59
82416;BME280;72058;47.782;10.618;2023-09-07T04:21:46;93787.56;;;13.97;70.71
82416;BME280;72058;47.782;10.618;2023-09-07T04:24:11;93795.09;;;14.00;70.15
82416;BME280;72058;47.782;10.618;2023-09-07T04:26:37;93790.81;;;13.90;70.48
82416;BME280;72058;47.782;10.618;2023-09-07T04:29:03;93798.91;;;13.87;70.63
82416;BME280;72058;47.782;10.618;2023-09-07T04:31:28;93794.50;;;13.94;70.69
82416;BME280;72058;47.782;10.618;2023-09-07T04:33:53;93802.44;;;14.08;70.68
82416;BME280;72058;47.782;10.618;2023-09-07T04:36:19;93798.56;;;14.09;70.41
82416;BME280;72058;47.782;10.618;2023-09-07T04:38:44;93797.84;;;14.00;70.54
82416;BME280;72058;47.782;10.618;2023-09-07T04:41:11;93794.97;;;13.96;70.89
82416;BME280;72058;47.782;10.618;2023-09-07T04:43:39;93794.63;;;13.98;70.89
82416;BME280;72058;47.782;10.618;2023-09-07T04:46:13;93789.84;;;13.65;71.64
82416;BME280;72058;47.782;10.618;2023-09-07T04:48:39;93786.03;;;13.58;72.12
82416;BME280;72058;47.782;10.618;2023-09-07T04:51:09;93786.38;;;13.56;71.96
82416;BME280;72058;47.782;10.618;2023-09-07T04:53:36;93794.88;;;13.63;72.28
82416;BME280;72058;47.782;10.618;2023-09-07T04:56:04;93798.88;;;13.37;73.79
82416;BME280;72058;47.782;10.618;2023-09-07T04:58:30;93801.00;;;13.22;74.64
82416;BME280;72058;47.782;10.618;2023-09-07T05:01:11;93803.84;;;13.35;74.31
82416;BME280;72058;47.782;10.618;2023-09-07T05:03:36;93805.19;;;13.58;73.40
82416;BME280;72058;47.782;10.618;2023-09-07T05:06:03;93816.22;;;13.70;73.01
82416;BME280;72058;47.782;10.618;2023-09-07T05:08:29;93814.34;;;13.83;72.49
82416;BME280;72058;47.782;10.618;2023-09-07T05:10:58;93810.69;;;13.99;72.13
82416;BME280;72058;47.782;10.618;2023-09-07T05:13:24;93816.06;;;13.96;72.25
82416;BME280;72058;47.782;10.618;2023-09-07T05:15:50;93815.06;;;14.42;70.39
82416;BME280;72058;47.782;10.618;2023-09-07T05:18:17;93814.72;;;14.23;71.06
82416;BME280;72058;47.782;10.618;2023-09-07T05:20:42;93809.94;;;14.40;70.32
82416;BME280;72058;47.782;10.618;2023-09-07T05:23:12;93807.84;;;13.96;72.12
82416;BME280;72058;47.782;10.618;2023-09-07T05:25:53;93809.97;;;13.90;72.21
82416;BME280;72058;47.782;10.618;2023-09-07T05:28:20;93812.44;;;13.83;72.90
82416;BME280;72058;47.782;10.618;2023-09-07T05:30:46;93812.53;;;13.95;72.76
82416;BME280;72058;47.782;10.618;2023-09-07T05:33:14;93814.50;;;14.07;72.68
82416;BME280;72058;47.782;10.618;2023-09-07T05:35:39;93811.47;;;14.29;71.87
82416;BME280;72058;47.782;10.618;2023-09-07T05:38:06;93808.94;;;14.45;71.27
82416;BME280;72058;47.782;10.618;2023-09-07T05:40:40;93812.19;;;14.59;70.92
82416;BME280;72058;47.782;10.618;2023-09-07T05:43:06;93808.53;;;14.88;70.19
82416;BME280;72058;47.782;10.618;2023-09-07T05:45:35;93809.47;;;15.04;68.99
82416;BME280;72058;47.782;10.618;2023-09-07T05:48:02;93816.97;;;14.95;68.64
82416;BME280;72058;47.782;10.618;2023-09-07T05:50:28;93813.09;;;14.96;68.83
82416;BME280;72058;47.782;10.618;2023-09-07T05:52:53;93810.50;;;15.12;68.36
82416;BME280;72058;47.782;10.618;2023-09-07T05:55:19;93811.66;;;15.23;67.50
82416;BME280;72058;47.782;10.618;2023-09-07T05:57:44;93806.44;;;15.42;66.68
82416;BME280;72058;47.782;10.618;2023-09-07T06:00:11;93812.78;;;15.55;66.72
82416;BME280;72058;47.782;10.618;2023-09-07T06:02:36;93817.28;;;15.51;66.60
82416;BME280;72058;47.782;10.618;2023-09-07T06:05:02;93819.97;;;15.60;66.42
82416;BME280;72058;47.782;10.618;2023-09-07T06:07:27;93810.03;;;15.55;66.78
82416;BME280;72058;47.782;10.618;2023-09-07T06:09:53;93811.97;;;15.54;66.48
82416;BME280;72058;47.782;10.618;2023-09-07T06:12:18;93808.16;;;15.35;67.68
82416;BME280;72058;47.782;10.618;2023-09-07T06:14:44;93812.84;;;15.46;67.68
82416;BME280;72058;47.782;10.618;2023-09-07T06:17:11;93805.97;;;15.40;68.58
82416;BME280;72058;47.782;10.618;2023-09-07T06:19:37;93803.22;;;15.40;68.96
82416;BME280;72058;47.782;10.618;2023-09-07T06:22:02;93807.47;;;15.38;69.60
82416;BME280;72058;47.782;10.618;2023-09-07T06:24:27;93805.88;;;15.37;69.91
82416;BME280;72058;47.782;10.618;2023-09-07T06:26:53;93806.25;;;15.60;69.59
82416;BME280;72058;47.782;10.618;2023-09-07T06:29:18;93806.03;;;15.65;69.31
82416;BME280;72058;47.782;10.618;2023-09-07T06:31:43;93798.69;;;15.69;69.98
82416;BME280;72058;47.782;10.618;2023-09-07T06:34:09;93802.94;;;15.78;69.64
82416;BME280;72058;47.782;10.618;2023-09-07T06:36:35;93804.41;;;15.88;69.75
82416;BME280;72058;47.782;10.618;2023-09-07T06:39:00;93806.34;;;15.87;70.64
82416;BME280;72058;47.782;10.618;2023-09-07T06:41:26;93806.56;;;15.94;70.25
82416;BME280;72058;47.782;10.618;2023-09-07T06:43:51;93811.47;;;16.01;70.22
82416;BME280;72058;47.782;10.618;2023-09-07T06:46:16;93806.78;;;16.14;69.98
82416;BME280;72058;47.782;10.618;2023-09-07T06:48:42;93816.47;;;16.23;69.69
82416;BME280;72058;47.782;10.618;2023-09-07T06:51:07;93808.19;;;16.36;69.42
82416;BME280;72058;47.782;10.618;2023-09-07T06:53:35;93811.50;;;16.41;69.82
82416;BME280;72058;47.782;10.618;2023-09-07T06:56:01;93817.09;;;16.45;70.44
82416;BME280;72058;47.782;10.618;2023-09-07T06:58:27;93815.69;;;16.51;70.02
82416;BME280;72058;47.782;10.618;2023-09-07T07:00:57;93818.31;;;16.59;69.55
82416;BME280;72058;47.782;10.618;2023-09-07T07:03:26;93807.66;;;16.70;69.52
82416;BME280;72058;47.782;10.618;2023-09-07T07:05:51;93811.06;;;16.79;68.86
82416;BME280;72058;47.782;10.618;2023-09-07T07:08:17;93813.31;;;16.89;68.48
82416;BME280;72058;47.782;10.618;2023-09-07T07:10:42;93819.53;;;17.02;67.89
82416;BME280;72058;47.782;10.618;2023-09-07T07:13:07;93819.09;;;17.16;66.89
82416;BME280;72058;47.782;10.618;2023-09-07T07:15:33;93816.28;;;17.28;66.88
82416;BME280;72058;47.782;10.618;2023-09-07T07:18:00;93811.13;;;17.42;66.49
82416;BME280;72058;47.782;10.618;2023-09-07T07:20:25;93814.69;;;17.58;65.81
82416;BME280;72058;47.782;10.618;2023-09-07T07:22:51;93818.19;;;17.71;65.93
82416;BME280;72058;47.782;10.618;2023-09-07T07:25:16;93809.13;;;17.86;65.52
82416;BME280;72058;47.782;10.618;2023-09-07T07:27:42;93817.28;;;17.98;65.56
82416;BME280;72058;47.782;10.618;2023-09-07T07:30:08;93819.81;;;18.23;65.34
82416;BME280;72058;47.782;10.618;2023-09-07T07:32:33;93819.97;;;18.30;64.85
82416;BME280;72058;47.782;10.618;2023-09-07T07:34:59;93825.19;;;18.35;64.52
82416;BME280;72058;47.782;10.618;2023-09-07T07:37:24;93827.09;;;18.50;64.92
82416;BME280;72058;47.782;10.618;2023-09-07T07:39:49;93836.78;;;18.60;64.82
82416;BME280;72058;47.782;10.618;2023-09-07T07:42:15;93827.50;;;18.68;64.58
82416;BME280;72058;47.782;10.618;2023-09-07T07:44:40;93828.22;;;18.84;64.35
82416;BME280;72058;47.782;10.618;2023-09-07T07:47:05;93824.63;;;18.99;64.38
82416;BME280;72058;47.782;10.618;2023-09-07T07:49:31;93830.09;;;19.18;63.31
82416;BME280;72058;47.782;10.618;2023-09-07T07:51:57;93828.34;;;19.29;62.86
82416;BME280;72058;47.782;10.618;2023-09-07T07:54:23;93833.22;;;19.59;62.61
82416;BME280;72058;47.782;10.618;2023-09-07T07:56:50;93833.91;;;19.75;61.91
82416;BME280;72058;47.782;10.618;2023-09-07T07:59:15;93827.97;;;19.73;61.80
82416;BME280;72058;47.782;10.618;2023-09-07T08:01:41;93822.00;;;19.71;61.88
82416;BME280;72058;47.782;10.618;2023-09-07T08:04:07;93823.19;;;19.70;62.28
82416;BME280;72058;47.782;10.618;2023-09-07T08:06:33;93825.75;;;19.82;61.85
82416;BME280;72058;47.782;10.618;2023-09-07T08:08:58;93819.72;;;19.99;61.82
82416;BME280;72058;47.782;10.618;2023-09-07T08:11:24;93821.47;;;20.11;61.44
82416;BME280;72058;47.782;10.618;2023-09-07T08:13:50;93812.72;;;20.05;61.61
82416;BME280;72058;47.782;10.618;2023-09-07T08:16:16;93815.56;;;20.13;60.87
82416;BME280;72058;47.782;10.618;2023-09-07T08:18:42;93819.69;;;20.22;60.97
82416;BME280;72058;47.782;10.618;2023-09-07T08:21:09;93826.44;;;20.25;61.26
82416;BME280;72058;47.782;10.618;2023-09-07T08:23:34;93826.84;;;20.27;61.56
82416;BME280;72058;47.782;10.618;2023-09-07T08:25:59;93816.75;;;20.64;62.00
82416;BME280;72058;47.782;10.618;2023-09-07T08:28:25;93819.19;;;21.03;59.48
82416;BME280;72058;47.782;10.618;2023-09-07T08:30:52;93818.00;;;21.00;59.43
82416;BME280;72058;47.782;10.618;2023-09-07T08:33:19;93825.00;;;20.91;60.63
82416;BME280;72058;47.782;10.618;2023-09-07T08:35:51;93821.06;;;20.92;60.82
82416;BME280;72058;47.782;10.618;2023-09-07T08:38:16;93821.22;;;21.06;59.85
82416;BME280;72058;47.782;10.618;2023-09-07T08:40:43;93821.97;;;21.03;60.42
82416;BME280;72058;47.782;10.618;2023-09-07T08:43:11;93814.00;;;20.98;61.50
82416;BME280;72058;47.782;10.618;2023-09-07T08:45:41;93809.22;;;20.95;62.94
82416;BME280;72058;47.782;10.618;2023-09-07T08:48:10;93813.56;;;20.92;62.39
82416;BME280;72058;47.782;10.618;2023-09-07T08:50:37;93816.28;;;20.89;62.81
82416;BME280;72058;47.782;10.618;2023-09-07T08:53:03;93810.25;;;21.13;62.86
82416;BME280;72058;47.782;10.618;2023-09-07T08:55:31;93821.59;;;21.04;63.26
82416;BME280;72058;47.782;10.618;2023-09-07T08:57:56;93815.63;;;21.02;63.58
82416;BME280;72058;47.782;10.618;2023-09-07T09:00:22;93825.88;;;20.98;64.26
82416;BME280;72058;47.782;10.618;2023-09-07T09:02:48;93822.25;;;20.94;63.88
82416;BME280;72058;47.782;10.618;2023-09-07T09:05:14;93822.63;;;20.93;65.24
82416;BME280;72058;47.782;10.618;2023-09-07T09:07:40;93819.63;;;21.05;65.30
82416;BME280;72058;47.782;10.618;2023-09-07T09:10:07;93820.00;;;21.03;64.70
82416;BME280;72058;47.782;10.618;2023-09-07T09:12:33;93815.63;;;21.02;64.78
82416;BME280;72058;47.782;10.618;2023-09-07T09:14:59;93813.34;;;21.08;65.47
82416;BME280;72058;47.782;10.618;2023-09-07T09:17:26;93820.56;;;21.16;66.63
82416;BME280;72058;47.782;10.618;2023-09-07T09:19:52;93810.78;;;21.22;66.17
82416;BME280;72058;47.782;10.618;2023-09-07T09:22:17;93812.31;;;21.19;66.33
82416;BME280;72058;47.782;10.618;2023-09-07T09:24:43;93808.78;;;21.23;66.56
82416;BME280;72058;47.782;10.618;2023-09-07T09:27:08;93812.00;;;21.28;66.51
82416;BME280;72058;47.782;10.618;2023-09-07T09:29:36;93809.25;;;21.28;66.49
82416;BME280;72058;47.782;10.618;2023-09-07T09:32:03;93810.41;;;21.27;66.34
82416;BME280;72058;47.782;10.618;2023-09-07T09:34:32;93805.81;;;21.38;66.53
82416;BME280;72058;47.782;10.618;2023-09-07T09:36:58;93809.88;;;21.51;65.19
82416;BME280;72058;47.782;10.618;2023-09-07T09:39:24;93806.78;;;21.56;64.72
82416;BME280;72058;47.782;10.618;2023-09-07T09:41:51;93807.75;;;21.78;63.80
82416;BME280;72058;47.782;10.618;2023-09-07T09:44:19;93799.56;;;21.89;64.08
82416;BME280;72058;47.782;10.618;2023-09-07T09:46:46;93807.44;;;21.83;64.16
82416;BME280;72058;47.782;10.618;2023-09-07T09:49:13;93799.94;;;21.87;64.59
82416;BME280;72058;47.782;10.618;2023-09-07T09:51:40;93792.38;;;21.84;64.33
82416;BME280;72058;47.782;10.618;2023-09-07T09:54:08;93792.00;;;21.86;63.76
82416;BME280;72058;47.782;10.618;2023-09-07T09:56:34;93795.19;;;21.88;63.98
82416;BME280;72058;47.782;10.618;2023-09-07T09:58:59;93791.59;;;21.84;64.05
82416;BME280;72058;47.782;10.618;2023-09-07T10:01:25;93795.56;;;21.86;62.70
82416;BME280;72058;47.782;10.618;2023-09-07T10:03:51;93797.16;;;21.87;63.34
82416;BME280;72058;47.782;10.618;2023-09-07T10:06:23;93799.16;;;21.90;63.59
82416;BME280;72058;47.782;10.618;2023-09-07T10:08:58;93793.59;;;21.87;63.16
82416;BME280;72058;47.782;10.618;2023-09-07T10:11:51;93793.59;;;21.87;63.88
82416;BME280;72058;47.782;10.618;2023-09-07T10:14:16;93786.50;;;21.89;64.27
82416;BME280;72058;47.782;10.618;2023-09-07T10:19:21;93793.81;;;22.08;63.95
82416;BME280;72058;47.782;10.618;2023-09-07T10:21:47;93789.88;;;22.13;62.81
82416;BME280;72058;47.782;10.618;2023-09-07T10:24:33;93788.22;;;22.05;62.78
82416;BME280;72058;47.782;10.618;2023-09-07T10:27:05;93787.09;;;22.13;62.74
82416;BME280;72058;47.782;10.618;2023-09-07T10:30:02;93791.13;;;22.22;62.72
82416;BME280;72058;47.782;10.618;2023-09-07T10:32:40;93793.16;;;22.29;62.73
82416;BME280;72058;47.782;10.618;2023-09-07T10:35:15;93792.00;;;22.37;63.06
82416;BME280;72058;47.782;10.618;2023-09-07T10:37:44;93783.69;;;22.33;63.25
82416;BME280;72058;47.782;10.618;2023-09-07T10:40:10;93782.53;;;22.42;62.41
82416;BME280;72058;47.782;10.618;2023-09-07T10:42:37;93785.28;;;22.38;62.46
82416;BME280;72058;47.782;10.618;2023-09-07T10:45:12;93782.94;;;22.44;62.53
82416;BME280;72058;47.782;10.618;2023-09-07T10:47:44;93781.78;;;22.52;62.38
82416;BME280;72058;47.782;10.618;2023-09-07T10:50:12;93786.16;;;22.49;61.49
82416;BME280;72058;47.782;10.618;2023-09-07T10:52:41;93776.16;;;22.38;61.30
82416;BME280;72058;47.782;10.618;2023-09-07T10:55:10;93775.41;;;22.44;61.71
82416;BME280;72058;47.782;10.618;2023-09-07T10:57:43;93773.53;;;22.59;61.34
82416;BME280;72058;47.782;10.618;2023-09-07T11:00:10;93773.53;;;22.59;61.92
82416;BME280;72058;47.782;10.618;2023-09-07T11:02:40;93775.09;;;22.60;62.47
82416;BME280;72058;47.782;10.618;2023-09-07T11:05:06;93773.56;;;22.66;63.42
82416;BME280;72058;47.782;10.618;2023-09-07T11:07:31;93768.50;;;22.75;63.35
82416;BME280;72058;47.782;10.618;2023-09-07T11:09:58;93770.09;;;22.80;64.61
82416;BME280;72058;47.782;10.618;2023-09-07T11:12:24;93766.19;;;22.91;65.10
82416;BME280;72058;47.782;10.618;2023-09-07T11:14:50;93759.88;;;23.05;65.62
82416;BME280;72058;47.782;10.618;2023-09-07T11:17:16;93764.63;;;23.04;64.89
82416;BME280;72058;47.782;10.618;2023-09-07T11:19:42;93763.03;;;23.03;63.62
82416;BME280;72058;47.782;10.618;2023-09-07T11:22:10;93761.47;;;23.06;64.50
82416;BME280;72058;47.782;10.618;2023-09-07T11:24:35;93765.44;;;23.08;64.06
82416;BME280;72058;47.782;10.618;2023-09-07T11:27:01;93751.56;;;23.08;63.55
82416;BME280;72058;47.782;10.618;2023-09-07T11:29:30;93764.63;;;23.04;63.94
82416;BME280;72058;47.782;10.618;2023-09-07T11:32:14;93767.38;;;22.97;65.20
82416;BME280;72058;47.782;10.618;2023-09-07T11:34:51;93762.69;;;23.16;64.70
82416;BME280;72058;47.782;10.618;2023-09-07T11:37:22;93758.72;;;23.20;64.79
82416;BME280;72058;47.782;10.618;2023-09-07T11:39:48;93759.13;;;23.19;64.70
82416;BME280;72058;47.782;10.618;2023-09-07T11:42:14;93752.38;;;23.20;64.40
82416;BME280;72058;47.782;10.618;2023-09-07T11:44:40;93750.78;;;23.19;65.17
82416;BME280;72058;47.782;10.618;2023-09-07T11:47:05;93756.75;;;23.17;65.33
82416;BME280;72058;47.782;10.618;2023-09-07T11:49:32;93753.59;;;23.36;63.96
82416;BME280;72058;47.782;10.618;2023-09-07T11:51:57;93753.63;;;23.33;63.89
82416;BME280;72058;47.782;10.618;2023-09-07T11:54:23;93757.19;;;23.37;63.86
82416;BME280;72058;47.782;10.618;2023-09-07T11:56:48;93751.63;;;23.37;63.64
82416;BME280;72058;47.782;10.618;2023-09-07T11:59:13;93754.81;;;23.42;63.76
82416;BME280;72058;47.782;10.618;2023-09-07T12:01:39;93759.97;;;23.44;62.98
82416;BME280;72058;47.782;10.618;2023-09-07T12:04:05;93756.38;;;23.43;63.32
82416;BME280;72058;47.782;10.618;2023-09-07T12:06:31;93751.66;;;23.48;63.15
82416;BME280;72058;47.782;10.618;2023-09-07T12:09:05;93763.16;;;23.46;63.63
82416;BME280;72058;47.782;10.618;2023-09-07T12:11:32;93751.28;;;23.49;64.18
82416;BME280;72058;47.782;10.618;2023-09-07T12:13:57;93752.06;;;23.53;63.59
82416;BME280;72058;47.782;10.618;2023-09-07T12:16:22;93755.66;;;23.64;63.09
82416;BME280;72058;47.782;10.618;2023-09-07T12:18:48;93745.38;;;23.68;63.59
82416;BME280;72058;47.782;10.618;2023-09-07T12:21:13;93755.69;;;23.68;63.17
82416;BME280;72058;47.782;10.618;2023-09-07T12:23:38;93751.69;;;23.69;62.84
82416;BME280;72058;47.782;10.618;2023-09-07T12:26:04;93747.75;;;23.66;62.87
82416;BME280;72058;47.782;10.618;2023-09-07T12:28:29;93739.81;;;23.68;62.61
82416;BME280;72058;47.782;10.618;2023-09-07T12:30:55;93745.34;;;23.61;62.70
82416;BME280;72058;47.782;10.618;2023-09-07T12:33:20;93744.97;;;23.59;62.41
82416;BME280;72058;47.782;10.618;2023-09-07T12:35:45;93740.19;;;23.60;62.82
82416;BME280;72058;47.782;10.618;2023-09-07T12:38:11;93737.41;;;23.70;62.91
82416;BME280;72058;47.782;10.618;2023-09-07T12:40:40;93729.88;;;23.78;62.03
82416;BME280;72058;47.782;10.618;2023-09-07T12:43:05;93735.03;;;23.83;61.54
82416;BME280;72058;47.782;10.618;2023-09-07T12:45:30;93736.22;;;23.82;61.93
82416;BME280;72058;47.782;10.618;2023-09-07T12:47:56;93742.97;;;23.77;61.96
82416;BME280;72058;47.782;10.618;2023-09-07T12:50:21;93735.03;;;23.69;61.82